sensor_id;sensor_type;location;lat;lon;timestamp;P1;durP1;ratioP1;P2;durP2;ratioP2
21281;SDS011;10800;53.096;18.328;2023-02-28T02:13:06;20.63;;;8.63;;
21281;SDS011;10800;53.096;18.328;2023-02-28T02:23:51;12.03;;;5.90;;
21281;SDS011;10800;53.096;18.328;2023-02-28T02:34:51;5.50;;;3.43;;
21281;SDS011;10800;53.096;18.328;2023-02-28T02:40:16;7.67;;;4.57;;
21281;SDS011;10800;53.096;18.328;2023-02-28T02:50:38;14.03;;;4.53;;
21281;SDS011;10800;53.096;18.328;2023-02-28T02:55:46;6.67;;;4.43;;
21281;SDS011;10800;53.096;18.328;2023-02-28T03:00:56;4.77;;;3.73;;
21281;SDS011;10800;53.096;18.328;2023-02-28T03:06:03;9.70;;;5.43;;
21281;SDS011;10800;53.096;18.328;2023-02-28T03:11:12;6.73;;;3.40;;
21281;SDS011;10800;53.096;18.328;2023-02-28T03:26:57;18.87;;;8.47;;
21281;SDS011;10800;53.096;18.328;2023-02-28T03:32:13;5.70;;;4.60;;
21281;SDS011;10800;53.096;18.328;2023-02-28T03:37:27;9.70;;;4.90;;
21281;SDS011;10800;53.096;18.328;2023-02-28T03:42:37;15.90;;;5.03;;
21281;SDS011;10800;53.096;18.328;2023-02-28T03:53:01;25.53;;;5.97;;
21281;SDS011;10800;53.096;18.328;2023-02-28T03:58:11;9.77;;;5.50;;
21281;SDS011;10800;53.096;18.328;2023-02-28T04:03:21;9.47;;;6.77;;
21281;SDS011;10800;53.096;18.328;2023-02-28T04:08:27;19.53;;;6.37;;
21281;SDS011;10800;53.096;18.328;2023-02-28T04:13:32;12.83;;;6.57;;
21281;SDS011;10800;53.096;18.328;2023-02-28T04:18:42;7.50;;;2.70;;
21281;SDS011;10800;53.096;18.328;2023-02-28T04:23:46;11.53;;;4.33;;
21281;SDS011;10800;53.096;18.328;2023-02-28T04:28:51;6.40;;;3.50;;
21281;SDS011;10800;53.096;18.328;2023-02-28T04:33:57;10.87;;;3.77;;
21281;SDS011;10800;53.096;18.328;2023-02-28T04:39:03;8.37;;;4.67;;
21281;SDS011;10800;53.096;18.328;2023-02-28T04:44:08;4.90;;;3.53;;
21281;SDS011;10800;53.096;18.328;2023-02-28T04:49:13;7.90;;;5.47;;
21281;SDS011;10800;53.096;18.328;2023-02-28T04:54:19;4.50;;;4.03;;
21281;SDS011;10800;53.096;18.328;2023-02-28T04:59:24;10.93;;;6.23;;
21281;SDS011;10800;53.096;18.328;2023-02-28T05:04:29;6.50;;;3.87;;
21281;SDS011;10800;53.096;18.328;2023-02-28T05:09:36;12.50;;;2.97;;
21281;SDS011;10800;53.096;18.328;2023-02-28T05:14:41;7.57;;;5.60;;
21281;SDS011;10800;53.096;18.328;2023-02-28T05:19:47;17.73;;;6.73;;
21281;SDS011;10800;53.096;18.328;2023-02-28T05:24:53;9.93;;;7.10;;
21281;SDS011;10800;53.096;18.328;2023-02-28T05:29:59;34.27;;;7.50;;
21281;SDS011;10800;53.096;18.328;2023-02-28T05:35:08;31.07;;;13.20;;
21281;SDS011;10800;53.096;18.328;2023-02-28T05:40:15;41.67;;;13.00;;
21281;SDS011;10800;53.096;18.328;2023-02-28T05:45:21;16.13;;;9.90;;
21281;SDS011;10800;53.096;18.328;2023-02-28T05:50:26;24.37;;;10.73;;
21281;SDS011;10800;53.096;18.328;2023-02-28T05:55:31;35.70;;;8.40;;
21281;SDS011;10800;53.096;18.328;2023-02-28T06:00:36;21.33;;;8.07;;
21281;SDS011;10800;53.096;18.328;2023-02-28T06:05:43;18.90;;;9.93;;
21281;SDS011;10800;53.096;18.328;2023-02-28T06:10:48;33.43;;;11.97;;
21281;SDS011;10800;53.096;18.328;2023-02-28T06:15:53;37.53;;;11.00;;
21281;SDS011;10800;53.096;18.328;2023-02-28T06:20:58;15.03;;;8.47;;
21281;SDS011;10800;53.096;18.328;2023-02-28T06:26:04;21.07;;;9.97;;
21281;SDS011;10800;53.096;18.328;2023-02-28T06:31:11;24.20;;;13.30;;
21281;SDS011;10800;53.096;18.328;2023-02-28T06:36:18;23.87;;;12.80;;
21281;SDS011;10800;53.096;18.328;2023-02-28T06:41:24;26.03;;;7.67;;
21281;SDS011;10800;53.096;18.328;2023-02-28T06:46:32;25.43;;;9.03;;
21281;SDS011;10800;53.096;18.328;2023-02-28T06:51:38;15.33;;;8.97;;
21281;SDS011;10800;53.096;18.328;2023-02-28T06:56:45;27.73;;;10.43;;
21281;SDS011;10800;53.096;18.328;2023-02-28T07:01:50;36.37;;;14.27;;
21281;SDS011;10800;53.096;18.328;2023-02-28T07:06:55;44.43;;;17.87;;
21281;SDS011;10800;53.096;18.328;2023-02-28T07:17:11;18.00;;;8.53;;
21281;SDS011;10800;53.096;18.328;2023-02-28T07:22:16;29.03;;;11.23;;
21281;SDS011;10800;53.096;18.328;2023-02-28T07:27:21;25.53;;;11.93;;
21281;SDS011;10800;53.096;18.328;2023-02-28T07:32:29;33.10;;;12.90;;
21281;SDS011;10800;53.096;18.328;2023-02-28T07:37:35;23.63;;;10.40;;
21281;SDS011;10800;53.096;18.328;2023-02-28T07:42:43;28.37;;;8.80;;
21281;SDS011;10800;53.096;18.328;2023-02-28T07:47:48;32.07;;;8.63;;
21281;SDS011;10800;53.096;18.328;2023-02-28T07:52:54;30.93;;;9.57;;
21281;SDS011;10800;53.096;18.328;2023-02-28T07:57:59;19.70;;;8.63;;
21281;SDS011;10800;53.096;18.328;2023-02-28T08:03:05;20.47;;;8.57;;
21281;SDS011;10800;53.096;18.328;2023-02-28T08:08:10;22.90;;;10.00;;
21281;SDS011;10800;53.096;18.328;2023-02-28T08:13:16;22.07;;;8.90;;
21281;SDS011;10800;53.096;18.328;2023-02-28T08:18:22;17.80;;;9.43;;
21281;SDS011;10800;53.096;18.328;2023-02-28T08:23:28;37.60;;;11.83;;
21281;SDS011;10800;53.096;18.328;2023-02-28T08:28:37;41.47;;;13.13;;
21281;SDS011;10800;53.096;18.328;2023-02-28T08:33:43;33.20;;;12.13;;
21281;SDS011;10800;53.096;18.328;2023-02-28T08:38:49;44.60;;;16.17;;
21281;SDS011;10800;53.096;18.328;2023-02-28T08:43:54;25.37;;;10.77;;
21281;SDS011;10800;53.096;18.328;2023-02-28T08:49:00;31.13;;;11.50;;
21281;SDS011;10800;53.096;18.328;2023-02-28T08:54:09;26.00;;;10.63;;
21281;SDS011;10800;53.096;18.328;2023-02-28T08:59:17;21.80;;;9.77;;
21281;SDS011;10800;53.096;18.328;2023-02-28T09:04:23;19.10;;;9.33;;
21281;SDS011;10800;53.096;18.328;2023-02-28T09:09:28;24.50;;;10.33;;
21281;SDS011;10800;53.096;18.328;2023-02-28T09:14:33;20.93;;;8.13;;
21281;SDS011;10800;53.096;18.328;2023-02-28T09:19:38;22.83;;;8.93;;
21281;SDS011;10800;53.096;18.328;2023-02-28T09:24:44;33.73;;;9.43;;
21281;SDS011;10800;53.096;18.328;2023-02-28T09:29:49;26.03;;;9.40;;
21281;SDS011;10800;53.096;18.328;2023-02-28T09:34:54;24.90;;;10.67;;
21281;SDS011;10800;53.096;18.328;2023-02-28T09:40:00;26.97;;;11.07;;
21281;SDS011;10800;53.096;18.328;2023-02-28T09:45:11;19.23;;;8.67;;
21281;SDS011;10800;53.096;18.328;2023-02-28T09:50:38;21.73;;;9.17;;
21281;SDS011;10800;53.096;18.328;2023-02-28T09:55:47;22.03;;;7.53;;
21281;SDS011;10800;53.096;18.328;2023-02-28T10:00:58;21.07;;;7.23;;
21281;SDS011;10800;53.096;18.328;2023-02-28T10:11:25;13.67;;;4.70;;
21281;SDS011;10800;53.096;18.328;2023-02-28T10:16:36;12.33;;;5.03;;
21281;SDS011;10800;53.096;18.328;2023-02-28T10:27:21;13.00;;;4.63;;
21281;SDS011;10800;53.096;18.328;2023-02-28T10:32:33;14.00;;;4.83;;
21281;SDS011;10800;53.096;18.328;2023-02-28T10:37:40;13.60;;;5.13;;
21281;SDS011;10800;53.096;18.328;2023-02-28T10:43:04;19.73;;;5.80;;
21281;SDS011;10800;53.096;18.328;2023-02-28T10:58:31;6.53;;;3.53;;
21281;SDS011;10800;53.096;18.328;2023-02-28T11:03:41;9.97;;;4.30;;
21281;SDS011;10800;53.096;18.328;2023-02-28T11:08:48;8.30;;;4.03;;
21281;SDS011;10800;53.096;18.328;2023-02-28T11:13:57;11.57;;;4.80;;
21281;SDS011;10800;53.096;18.328;2023-02-28T11:19:05;9.40;;;5.00;;
21281;SDS011;10800;53.096;18.328;2023-02-28T11:24:22;14.00;;;5.07;;
21281;SDS011;10800;53.096;18.328;2023-02-28T11:29:32;11.87;;;4.77;;
21281;SDS011;10800;53.096;18.328;2023-02-28T11:34:45;9.70;;;4.13;;
21281;SDS011;10800;53.096;18.328;2023-02-28T11:39:51;7.87;;;4.20;;
21281;SDS011;10800;53.096;18.328;2023-02-28T11:45:15;11.40;;;4.60;;
21281;SDS011;10800;53.096;18.328;2023-02-28T11:50:38;10.17;;;4.70;;
21281;SDS011;10800;53.096;18.328;2023-02-28T11:56:05;8.90;;;4.47;;
21281;SDS011;10800;53.096;18.328;2023-02-28T12:12:07;18.80;;;5.13;;
21281;SDS011;10800;53.096;18.328;2023-02-28T12:22:29;8.97;;;3.60;;
21281;SDS011;10800;53.096;18.328;2023-02-28T12:27:40;8.00;;;3.70;;
21281;SDS011;10800;53.096;18.328;2023-02-28T12:32:56;11.00;;;3.97;;
21281;SDS011;10800;53.096;18.328;2023-02-28T12:38:14;13.67;;;3.23;;
21281;SDS011;10800;53.096;18.328;2023-02-28T12:43:25;9.37;;;2.23;;
21281;SDS011;10800;53.096;18.328;2023-02-28T12:48:37;5.70;;;3.20;;
21281;SDS011;10800;53.096;18.328;2023-02-28T12:59:01;5.27;;;2.37;;
21281;SDS011;10800;53.096;18.328;2023-02-28T13:09:32;6.17;;;1.83;;
21281;SDS011;10800;53.096;18.328;2023-02-28T13:14:38;5.13;;;2.10;;
21281;SDS011;10800;53.096;18.328;2023-02-28T13:25:49;8.03;;;2.53;;
21281;SDS011;10800;53.096;18.328;2023-02-28T13:36:06;5.03;;;2.10;;
21281;SDS011;10800;53.096;18.328;2023-02-28T13:57:23;4.57;;;2.57;;
21281;SDS011;10800;53.096;18.328;2023-02-28T14:02:40;41.30;;;13.30;;
21281;SDS011;10800;53.096;18.328;2023-02-28T14:08:35;7.10;;;3.13;;
21281;SDS011;10800;53.096;18.328;2023-02-28T14:13:41;6.83;;;2.67;;
21281;SDS011;10800;53.096;18.328;2023-02-28T14:18:58;8.63;;;2.80;;
21281;SDS011;10800;53.096;18.328;2023-02-28T14:29:33;3.53;;;2.17;;
21281;SDS011;10800;53.096;18.328;2023-02-28T14:34:51;2.70;;;2.07;;
21281;SDS011;10800;53.096;18.328;2023-02-28T14:40:16;8.07;;;2.10;;
21281;SDS011;10800;53.096;18.328;2023-02-28T14:45:25;8.80;;;1.90;;
21281;SDS011;10800;53.096;18.328;2023-02-28T14:50:36;3.00;;;1.93;;
21281;SDS011;10800;53.096;18.328;2023-02-28T14:55:44;6.27;;;1.97;;
21281;SDS011;10800;53.096;18.328;2023-02-28T15:00:51;4.20;;;2.20;;
21281;SDS011;10800;53.096;18.328;2023-02-28T15:05:59;6.03;;;2.20;;
21281;SDS011;10800;53.096;18.328;2023-02-28T15:11:12;7.00;;;1.80;;
21281;SDS011;10800;53.096;18.328;2023-02-28T15:16:32;19.07;;;5.63;;
21281;SDS011;10800;53.096;18.328;2023-02-28T15:21:37;17.07;;;2.73;;
21281;SDS011;10800;53.096;18.328;2023-02-28T15:26:45;9.60;;;2.37;;
21281;SDS011;10800;53.096;18.328;2023-02-28T15:32:00;9.23;;;3.90;;
21281;SDS011;10800;53.096;18.328;2023-02-28T15:42:38;20.67;;;5.97;;
21281;SDS011;10800;53.096;18.328;2023-02-28T15:47:44;9.67;;;3.40;;
21281;SDS011;10800;53.096;18.328;2023-02-28T15:52:51;13.23;;;3.67;;
21281;SDS011;10800;53.096;18.328;2023-02-28T15:57:59;12.10;;;4.93;;
21281;SDS011;10800;53.096;18.328;2023-02-28T16:03:24;32.83;;;5.10;;
21281;SDS011;10800;53.096;18.328;2023-02-28T16:08:34;15.33;;;7.67;;
21281;SDS011;10800;53.096;18.328;2023-02-28T16:13:39;23.37;;;8.43;;
21281;SDS011;10800;53.096;18.328;2023-02-28T16:18:45;116.07;;;33.40;;
21281;SDS011;10800;53.096;18.328;2023-02-28T16:23:50;34.17;;;12.83;;
21281;SDS011;10800;53.096;18.328;2023-02-28T16:28:55;58.63;;;20.80;;
21281;SDS011;10800;53.096;18.328;2023-02-28T16:34:01;63.20;;;16.57;;
21281;SDS011;10800;53.096;18.328;2023-02-28T16:39:07;36.03;;;15.27;;
21281;SDS011;10800;53.096;18.328;2023-02-28T16:44:33;21.10;;;8.43;;
21281;SDS011;10800;53.096;18.328;2023-02-28T16:49:38;38.73;;;13.60;;
21281;SDS011;10800;53.096;18.328;2023-02-28T16:54:45;77.20;;;29.17;;
21281;SDS011;10800;53.096;18.328;2023-02-28T16:59:50;53.20;;;20.57;;
21281;SDS011;10800;53.096;18.328;2023-02-28T17:04:56;50.03;;;19.90;;
21281;SDS011;10800;53.096;18.328;2023-02-28T17:10:01;81.87;;;28.03;;
21281;SDS011;10800;53.096;18.328;2023-02-28T17:15:10;163.17;;;48.73;;
21281;SDS011;10800;53.096;18.328;2023-02-28T17:20:20;141.53;;;46.90;;
21281;SDS011;10800;53.096;18.328;2023-02-28T17:25:26;88.13;;;27.67;;
21281;SDS011;10800;53.096;18.328;2023-02-28T17:30:33;65.73;;;22.77;;
21281;SDS011;10800;53.096;18.328;2023-02-28T17:35:38;66.80;;;22.60;;
21281;SDS011;10800;53.096;18.328;2023-02-28T17:40:44;62.17;;;22.93;;
21281;SDS011;10800;53.096;18.328;2023-02-28T17:45:51;61.70;;;21.43;;
21281;SDS011;10800;53.096;18.328;2023-02-28T17:50:57;44.17;;;15.90;;
21281;SDS011;10800;53.096;18.328;2023-02-28T17:56:03;45.53;;;13.53;;
21281;SDS011;10800;53.096;18.328;2023-02-28T18:01:08;48.77;;;13.07;;
21281;SDS011;10800;53.096;18.328;2023-02-28T18:06:25;29.93;;;9.97;;
21281;SDS011;10800;53.096;18.328;2023-02-28T18:11:27;29.63;;;8.77;;
21281;SDS011;10800;53.096;18.328;2023-02-28T18:16:34;33.77;;;10.40;;
21281;SDS011;10800;53.096;18.328;2023-02-28T18:21:43;46.63;;;11.93;;
21281;SDS011;10800;53.096;18.328;2023-02-28T18:26:50;75.50;;;22.73;;
21281;SDS011;10800;53.096;18.328;2023-02-28T18:31:55;48.00;;;16.03;;
21281;SDS011;10800;53.096;18.328;2023-02-28T18:37:00;32.17;;;11.77;;
21281;SDS011;10800;53.096;18.328;2023-02-28T18:42:09;114.20;;;26.77;;
21281;SDS011;10800;53.096;18.328;2023-02-28T18:47:15;131.47;;;33.07;;
21281;SDS011;10800;53.096;18.328;2023-02-28T18:57:32;74.57;;;22.80;;
21281;SDS011;10800;53.096;18.328;2023-02-28T19:02:38;76.67;;;24.33;;
21281;SDS011;10800;53.096;18.328;2023-02-28T19:07:43;91.63;;;26.77;;
21281;SDS011;10800;53.096;18.328;2023-02-28T19:12:49;91.60;;;27.23;;
21281;SDS011;10800;53.096;18.328;2023-02-28T19:17:54;71.33;;;21.80;;
21281;SDS011;10800;53.096;18.328;2023-02-28T19:23:00;65.67;;;22.33;;
21281;SDS011;10800;53.096;18.328;2023-02-28T19:28:05;78.97;;;23.23;;
21281;SDS011;10800;53.096;18.328;2023-02-28T19:33:10;99.50;;;28.67;;
21281;SDS011;10800;53.096;18.328;2023-02-28T19:38:17;141.87;;;31.97;;
21281;SDS011;10800;53.096;18.328;2023-02-28T19:43:25;103.10;;;34.53;;
21281;SDS011;10800;53.096;18.328;2023-02-28T19:48:33;197.20;;;54.07;;
21281;SDS011;10800;53.096;18.328;2023-02-28T19:53:38;189.83;;;51.73;;
21281;SDS011;10800;53.096;18.328;2023-02-28T19:58:45;217.67;;;62.40;;
21281;SDS011;10800;53.096;18.328;2023-02-28T20:03:50;220.23;;;54.53;;
21281;SDS011;10800;53.096;18.328;2023-02-28T20:08:56;176.13;;;56.17;;
21281;SDS011;10800;53.096;18.328;2023-02-28T20:14:02;158.97;;;50.40;;
21281;SDS011;10800;53.096;18.328;2023-02-28T20:19:07;194.47;;;54.60;;
21281;SDS011;10800;53.096;18.328;2023-02-28T20:24:13;194.70;;;56.43;;
21281;SDS011;10800;53.096;18.328;2023-02-28T20:29:19;131.30;;;42.43;;
21281;SDS011;10800;53.096;18.328;2023-02-28T20:34:24;103.30;;;35.90;;
21281;SDS011;10800;53.096;18.328;2023-02-28T20:39:29;107.33;;;33.43;;
21281;SDS011;10800;53.096;18.328;2023-02-28T20:44:35;145.27;;;45.00;;
21281;SDS011;10800;53.096;18.328;2023-02-28T20:49:40;84.97;;;31.37;;
21281;SDS011;10800;53.096;18.328;2023-02-28T20:54:45;104.70;;;38.13;;
21281;SDS011;10800;53.096;18.328;2023-02-28T20:59:51;108.43;;;31.63;;
21281;SDS011;10800;53.096;18.328;2023-02-28T21:04:56;106.67;;;34.00;;
21281;SDS011;10800;53.096;18.328;2023-02-28T21:10:04;92.73;;;34.20;;
21281;SDS011;10800;53.096;18.328;2023-02-28T21:15:11;82.03;;;28.90;;
21281;SDS011;10800;53.096;18.328;2023-02-28T21:20:17;83.27;;;29.17;;
21281;SDS011;10800;53.096;18.328;2023-02-28T21:25:24;65.50;;;20.67;;
21281;SDS011;10800;53.096;18.328;2023-02-28T21:30:29;57.73;;;21.27;;
21281;SDS011;10800;53.096;18.328;2023-02-28T21:35:35;65.23;;;19.77;;
21281;SDS011;10800;53.096;18.328;2023-02-28T21:40:40;38.87;;;16.73;;
21281;SDS011;10800;53.096;18.328;2023-02-28T21:45:47;42.37;;;16.10;;
21281;SDS011;10800;53.096;18.328;2023-02-28T21:50:56;38.47;;;12.63;;
21281;SDS011;10800;53.096;18.328;2023-02-28T21:56:05;26.07;;;11.37;;
21281;SDS011;10800;53.096;18.328;2023-02-28T22:01:18;21.10;;;9.20;;
21281;SDS011;10800;53.096;18.328;2023-02-28T22:06:22;30.03;;;12.07;;
21281;SDS011;10800;53.096;18.328;2023-02-28T22:11:29;33.73;;;9.10;;
21281;SDS011;10800;53.096;18.328;2023-02-28T22:16:35;27.07;;;9.33;;
21281;SDS011;10800;53.096;18.328;2023-02-28T22:21:43;30.17;;;10.30;;
21281;SDS011;10800;53.096;18.328;2023-02-28T22:26:50;28.87;;;12.33;;
21281;SDS011;10800;53.096;18.328;2023-02-28T22:31:56;30.17;;;12.53;;
21281;SDS011;10800;53.096;18.328;2023-02-28T22:37:01;25.77;;;11.70;;
21281;SDS011;10800;53.096;18.328;2023-02-28T22:42:07;32.53;;;12.33;;
21281;SDS011;10800;53.096;18.328;2023-02-28T22:47:12;44.80;;;13.87;;
21281;SDS011;10800;53.096;18.328;2023-02-28T22:52:17;72.73;;;25.23;;
21281;SDS011;10800;53.096;18.328;2023-02-28T22:57:23;40.83;;;18.10;;
21281;SDS011;10800;53.096;18.328;2023-02-28T23:02:28;58.57;;;28.90;;
21281;SDS011;10800;53.096;18.328;2023-02-28T23:07:33;40.03;;;21.07;;
21281;SDS011;10800;53.096;18.328;2023-02-28T23:12:38;36.73;;;13.33;;
21281;SDS011;10800;53.096;18.328;2023-02-28T23:17:46;43.70;;;13.97;;
21281;SDS011;10800;53.096;18.328;2023-02-28T23:22:52;26.67;;;10.20;;
21281;SDS011;10800;53.096;18.328;2023-02-28T23:27:57;12.43;;;8.17;;
21281;SDS011;10800;53.096;18.328;2023-02-28T23:33:04;25.27;;;10.43;;
21281;SDS011;10800;53.096;18.328;2023-02-28T23:38:10;42.93;;;12.73;;
21281;SDS011;10800;53.096;18.328;2023-02-28T23:43:15;43.63;;;13.63;;
21281;SDS011;10800;53.096;18.328;2023-02-28T23:48:22;35.93;;;15.03;;
21281;SDS011;10800;53.096;18.328;2023-02-28T23:53:29;46.60;;;11.00;;
21281;SDS011;10800;53.096;18.328;2023-02-28T23:58:36;33.23;;;10.80;;
